Time;durP1;ratioP1;P1;durP2;ratioP2;P2;SDS_P1;SDS_P2;PMS_P1;PMS_P2;Temp;Humidity;BMP_temperature;BMP_pressure;BME280_temperature;BME280_humidity;BME280_pressure;Samples;Min_cycle;Max_cycle;Signal;HPM_P1;HPM_P2
2021/08/28 00:00:58;;;;;;;25.17;13.43;;;;;;;10.96;83.74;99428.55;1706646;81;20937;-76
2021/08/28 00:03:24;;;;;;;52.10;14.25;;;;;;;10.95;83.99;99428.61;1708989;81;21022;-76
2021/08/28 00:05:51;;;;;;;45.37;15.07;;;;;;;10.89;84.07;99424.56;1700353;82;20974;-76
2021/08/28 00:08:18;;;;;;;38.50;15.03;;;;;;;10.89;84.07;99424.56;1696360;82;21931;-76
2021/08/28 00:10:47;;;;;;;42.45;15.53;;;;;;;10.86;84.03;99419.50;1707384;81;21022;-76
2021/08/28 00:13:15;;;;;;;36.10;15.25;;;;;;;10.81;84.00;99418.94;1707510;82;21096;-76
2021/08/28 00:15:42;;;;;;;124.62;15.25;;;;;;;10.80;84.11;99421.14;1706229;81;20934;-76
2021/08/28 00:18:09;;;;;;;111.97;13.35;;;;;;;10.80;84.28;99425.06;1665651;82;20995;-76
2021/08/28 00:20:37;;;;;;;63.50;13.25;;;;;;;10.81;84.21;99420.23;1708486;81;21311;-76
2021/08/28 00:23:06;;;;;;;57.20;15.72;;;;;;;10.77;84.20;99418.70;1717643;82;20946;-76
2021/08/28 00:25:34;;;;;;;22.52;14.33;;;;;;;10.75;84.33;99423.15;1711123;82;21010;-76
2021/08/28 00:28:03;;;;;;;35.50;14.33;;;;;;;10.78;84.44;99419.06;1720860;82;20946;-76
2021/08/28 00:30:30;;;;;;;29.60;13.80;;;;;;;10.80;84.43;99413.77;1702747;81;21024;-76
2021/08/28 00:32:57;;;;;;;67.80;13.15;;;;;;;10.82;84.49;99410.16;1706325;81;21056;-75
2021/08/28 00:35:24;;;;;;;60.23;14.80;;;;;;;10.87;84.51;99402.93;1681744;82;21539;-76
2021/08/28 00:37:50;;;;;;;107.12;13.83;;;;;;;10.89;84.47;99402.36;1711164;81;21098;-76
2021/08/28 00:40:17;;;;;;;25.47;13.27;;;;;;;10.95;84.55;99407.72;1712794;82;20959;-76
2021/08/28 00:42:51;;;;;;;47.07;13.00;;;;;;;10.92;84.24;99411.37;1711716;82;21031;-76
2021/08/28 00:45:41;;;;;;;26.05;12.88;;;;;;;10.85;84.28;99407.38;1708715;81;21075;-76
2021/08/28 00:48:13;;;;;;;29.45;13.43;;;;;;;10.83;84.35;99406.61;1706049;82;21003;-76
2021/08/28 00:50:42;;;;;;;38.38;12.43;;;;;;;10.83;84.38;99405.31;1725245;82;21021;-76
2021/08/28 00:56:00;;;;;;;102.47;14.18;;;;;;;10.88;84.54;99404.60;1676102;84;21110;-74
2021/08/28 00:58:27;;;;;;;48.58;12.43;;;;;;;10.94;84.57;99412.11;1675152;84;21900;-74
2021/08/28 01:01:03;;;;;;;96.47;13.53;;;;;;;10.94;84.57;99410.80;1717602;81;20999;-74
2021/08/28 01:03:33;;;;;;;113.90;13.30;;;;;;;10.94;84.56;99422.55;1712154;82;21139;-76
2021/08/28 01:06:23;;;;;;;110.32;12.98;;;;;;;10.92;84.57;99417.90;1711312;81;21593;-76
2021/08/28 01:09:23;;;;;;;137.60;11.57;;;;;;;10.90;84.54;99417.59;1710358;81;21010;-75
2021/08/28 01:12:16;;;;;;;92.27;11.97;;;;;;;10.86;84.58;99420.81;1681201;84;21106;-75
2021/08/28 01:14:53;;;;;;;207.72;12.93;;;;;;;10.85;84.71;99417.83;1685860;84;21013;-76
2021/08/28 01:17:21;;;;;;;163.97;11.08;;;;;;;10.87;84.78;99418.59;1684504;84;20994;-76
2021/08/28 01:19:56;;;;;;;239.27;12.35;;;;;;;10.84;84.66;99418.77;1653151;85;21049;-76
2021/08/28 01:22:24;;;;;;;301.70;12.55;;;;;;;10.82;84.76;99431.05;1656813;85;21059;-76
2021/08/28 01:24:53;;;;;;;378.77;12.85;;;;;;;10.84;84.86;99426.60;1679365;84;21083;-76
2021/08/28 01:27:34;;;;;;;373.35;12.33;;;;;;;10.82;84.80;99423.22;1711178;82;21037;-76
2021/08/28 01:30:02;;;;;;;328.77;11.55;;;;;;;10.85;84.91;99431.36;1708951;82;21528;-76
2021/08/28 01:32:29;;;;;;;177.02;9.25;;;;;;;10.85;84.94;99429.58;1711812;82;20960;-76
2021/08/28 01:34:59;;;;;;;227.05;9.65;;;;;;;10.85;84.89;99430.89;1710324;82;20952;-76
2021/08/28 01:37:26;;;;;;;215.37;8.95;;;;;;;10.81;84.79;99430.69;1712713;82;21021;-75
2021/08/28 01:39:56;;;;;;;121.45;7.92;;;;;;;10.80;84.90;99432.89;1714926;82;21597;-75
2021/08/28 01:42:24;;;;;;;175.72;8.50;;;;;;;10.78;84.82;99432.13;1713999;81;21022;-75
2021/08/28 01:44:52;;;;;;;73.83;7.22;;;;;;;10.76;84.94;99436.61;1687545;81;20960;-75
2021/08/28 01:47:21;;;;;;;74.67;7.20;;;;;;;10.76;84.99;99436.61;1706118;81;21602;-75
2021/08/28 01:49:49;;;;;;;69.12;6.87;;;;;;;10.77;85.07;99431.75;1707250;81;21893;-76
2021/08/28 01:52:16;;;;;;;54.83;6.78;;;;;;;10.76;84.98;99427.47;1711790;81;21130;-77
2021/08/28 01:54:44;;;;;;;66.70;6.42;;;;;;;10.74;85.07;99426.70;1702652;82;21135;-75
2021/08/28 01:57:11;;;;;;;;;;;;;;;10.71;84.95;99426.39;1695707;82;21011;-76
2021/08/28 01:59:38;;;;;;;39.50;6.80;;;;;;;10.70;85.12;99426.48;1701731;82;20149;-75
2021/08/28 02:02:04;;;;;;;;;;;;;;;10.70;85.15;99426.48;1694005;83;22518;-75
2021/08/28 02:04:31;;;;;;;25.48;6.85;;;;;;;10.69;85.26;99414.34;1687374;82;20158;-75
2021/08/28 02:07:21;;;;;;;29.30;6.37;;;;;;;10.68;85.13;99423.11;1676398;82;21556;-76
2021/08/28 02:10:04;;;;;;;28.60;6.80;;;;;;;10.66;85.09;99418.42;1635622;85;21066;-75
2021/08/28 02:12:42;;;;;;;20.43;6.25;;;;;;;10.61;85.03;99429.56;1645478;85;21083;-75
2021/08/28 02:15:17;;;;;;;63.63;7.85;;;;;;;10.56;84.92;99421.11;1637820;84;21090;-75
2021/08/28 02:17:55;;;;;;;55.00;6.97;;;;;;;10.50;84.95;99423.15;1646147;86;21550;-75
2021/08/28 02:20:27;;;;;;;79.17;9.08;;;;;;;10.49;85.11;99414.08;1634055;86;21019;-75
2021/08/28 02:22:57;;;;;;;67.08;7.28;;;;;;;10.45;85.05;99422.53;1675161;84;21046;-75
2021/08/28 02:25:46;;;;;;;54.95;6.47;;;;;;;10.41;85.08;99420.98;1637497;84;21028;-75
2021/08/28 02:28:17;;;;;;;35.60;6.22;;;;;;;10.38;85.13;99418.54;1690497;82;21096;-76
2021/08/28 02:30:46;;;;;;;65.28;6.70;;;;;;;10.34;84.96;99418.80;1628634;85;21164;-75
2021/08/28 02:33:14;;;;;;;107.90;6.92;;;;;;;10.28;85.00;99426.00;1642403;85;21076;-76
2021/08/28 02:35:43;;;;;;;43.50;6.55;;;;;;;10.28;85.12;99419.95;1638174;85;20985;-76
2021/08/28 02:38:10;;;;;;;71.47;6.22;;;;;;;10.27;85.31;99413.02;1643990;85;21898;-75
2021/08/28 02:40:39;;;;;;;87.25;6.53;;;;;;;10.30;85.25;99412.86;1665767;84;21096;-76
2021/08/28 02:43:08;;;;;;;152.17;7.22;;;;;;;10.29;85.25;99412.49;1665430;83;21047;-75
2021/08/28 02:45:36;;;;;;;82.70;6.37;;;;;;;10.28;85.36;99416.03;1676943;83;21563;-75
2021/08/28 02:48:05;;;;;;;90.53;6.62;;;;;;;10.27;85.29;99413.02;1678875;84;21052;-75
2021/08/28 02:50:35;;;;;;;52.33;5.40;;;;;;;10.23;85.24;99414.09;1627300;86;21019;-75
2021/08/28 02:53:03;;;;;;;58.25;5.47;;;;;;;10.20;85.25;99411.63;1645557;85;21515;-75
2021/08/28 02:55:33;;;;;;;29.90;5.00;;;;;;;10.18;85.33;99408.25;1702225;82;20984;-75
2021/08/28 02:58:02;;;;;;;27.90;4.83;;;;;;;10.16;85.19;99408.78;1710071;82;20920;-75
2021/08/28 03:00:30;;;;;;;15.25;5.33;;;;;;;10.08;85.10;99410.02;1708908;81;21015;-75
2021/08/28 03:02:57;;;;;;;46.92;5.33;;;;;;;10.02;85.06;99410.30;1711610;81;20928;-75
2021/08/28 03:05:24;;;;;;;26.23;5.20;;;;;;;9.96;85.18;99410.62;1681896;83;21097;-75
2021/08/28 03:07:51;;;;;;;25.90;5.10;;;;;;;9.95;85.30;99409.41;1676963;82;21074;-75
2021/08/28 03:10:18;;;;;;;18.60;6.27;;;;;;;9.94;85.40;99411.17;1656194;84;21059;-75
2021/08/28 03:12:45;;;;;;;18.98;5.00;;;;;;;9.94;85.34;99416.39;1653194;85;21076;-75
2021/08/28 03:15:12;;;;;;;38.17;5.50;;;;;;;9.90;85.28;99412.23;1678919;83;21067;-75
2021/08/28 03:17:40;;;;;;;74.62;6.58;;;;;;;9.87;85.38;99407.17;1684148;82;21076;-75
2021/08/28 03:20:10;;;;;;;41.80;7.47;;;;;;;9.87;85.48;99412.39;1679976;84;21066;-75
2021/08/28 03:22:39;;;;;;;37.05;5.47;;;;;;;9.88;85.52;99413.22;1680900;84;20936;-75
2021/08/28 03:25:09;;;;;;;35.45;5.37;;;;;;;9.86;85.33;99421.14;1687299;83;21055;-75
2021/08/28 03:27:39;;;;;;;91.75;5.65;;;;;;;9.85;85.49;99425.95;1651093;85;21015;-75
2021/08/28 03:30:13;;;;;;;103.02;6.03;;;;;;;9.81;85.32;99426.57;1672980;83;21079;-75
2021/08/28 03:32:42;;;;;;;110.35;5.58;;;;;;;9.78;85.38;99424.11;1682867;84;21598;-75
2021/08/28 03:35:13;;;;;;;52.15;6.55;;;;;;;9.74;85.33;99426.94;1681955;84;21802;-75
2021/08/28 03:37:40;;;;;;;99.03;5.42;;;;;;;9.71;85.46;99424.48;1637650;84;20980;-75
2021/08/28 03:40:10;;;;;;;62.23;5.28;;;;;;;9.72;85.56;99428.77;1684568;84;20996;-75
2021/08/28 03:42:39;;;;;;;57.25;5.37;;;;;;;9.74;85.72;99426.94;1647575;84;21088;-76
2021/08/28 03:45:09;;;;;;;56.85;5.80;;;;;;;9.73;85.58;99426.09;1679770;84;20963;-75
2021/08/28 03:47:41;;;;;;;76.47;5.15;;;;;;;9.71;85.58;99425.78;1710878;82;20959;-75
2021/08/28 03:50:09;;;;;;;41.20;6.15;;;;;;;9.71;85.60;99424.48;1710724;82;21000;-75
2021/08/28 03:52:35;;;;;;;52.58;5.00;;;;;;;9.69;85.53;99421.09;1710034;82;21015;-75
2021/08/28 03:55:02;;;;;;;48.87;5.42;;;;;;;9.66;85.48;99421.24;1704059;82;21100;-74
2021/08/28 03:57:29;;;;;;;79.87;6.55;;;;;;;9.68;85.74;99424.63;1690886;84;21024;-75
2021/08/28 03:59:56;;;;;;;25.23;4.37;;;;;;;9.72;85.85;99423.55;1689969;83;21717;-75
2021/08/28 04:02:23;;;;;;;38.42;5.10;;;;;;;9.71;85.71;99421.87;1689144;83;21042;-75
2021/08/28 04:04:49;;;;;;;50.23;6.17;;;;;;;9.73;85.81;99418.27;1687119;82;21022;-75
2021/08/28 04:07:16;;;;;;;44.93;5.37;;;;;;;9.77;85.77;99421.56;1688633;83;21855;-75
2021/08/28 04:09:43;;;;;;;84.07;6.77;;;;;;;9.75;85.62;99421.66;1686969;83;20999;-75
2021/08/28 04:12:09;;;;;;;51.40;5.90;;;;;;;9.81;85.91;99420.52;1694003;83;20985;-75
2021/08/28 04:14:36;;;;;;;47.97;5.63;;;;;;;9.85;85.86;99419.43;1697189;82;20950;-75
2021/08/28 04:17:04;;;;;;;55.27;4.90;;;;;;;9.83;85.64;99418.22;1694781;83;21019;-75
2021/08/28 04:19:31;;;;;;;39.60;5.05;;;;;;;9.82;85.53;99418.28;1700402;83;21711;-75
2021/08/28 04:21:57;;;;;;;42.33;5.75;;;;;;;9.81;85.63;99417.91;1696184;83;21088;-75
2021/08/28 04:24:24;;;;;;;25.17;5.47;;;;;;;9.90;85.90;99417.45;1695908;82;20976;-75
2021/08/28 04:26:51;;;;;;;12.13;5.13;;;;;;;9.96;85.90;99419.75;1694942;83;21010;-75
2021/08/28 04:29:17;;;;;;;26.60;7.75;;;;;;;10.02;85.89;99414.22;1692618;83;21019;-75
2021/08/28 04:31:44;;;;;;;16.15;5.83;;;;;;;10.08;85.81;99422.20;1678064;83;21073;-75
2021/08/28 04:34:11;;;;;;;121.85;7.28;;;;;;;10.17;85.99;99420.92;1651177;84;21643;-74
2021/08/28 04:36:37;;;;;;;77.82;7.42;;;;;;;10.24;85.94;99420.52;1690053;82;21004;-75
2021/08/28 04:39:04;;;;;;;71.73;7.10;;;;;;;10.41;86.11;99420.98;1690226;83;21014;-75
2021/08/28 04:41:31;;;;;;;89.28;6.53;;;;;;;10.48;85.96;99426.29;1690941;82;21062;-75
2021/08/28 04:43:59;;;;;;;78.30;5.20;;;;;;;10.58;85.94;99440.16;1694352;82;21105;-74
2021/08/28 04:46:26;;;;;;;90.75;4.83;;;;;;;10.66;85.94;99443.22;1692565;83;20912;-75
2021/08/28 04:48:52;;;;;;;119.93;5.20;;;;;;;10.63;85.68;99445.99;1697695;83;21147;-75
2021/08/28 04:51:19;;;;;;;53.08;4.83;;;;;;;10.61;85.67;99445.22;1699015;83;21633;-75
2021/08/28 04:53:45;;;;;;;56.63;4.13;;;;;;;10.63;85.77;99438.16;1692850;83;21042;-75
2021/08/28 04:56:12;;;;;;;63.17;5.20;;;;;;;10.63;85.71;99436.86;1693938;83;21629;-74
2021/08/28 04:58:39;;;;;;;71.77;5.25;;;;;;;10.67;85.86;99427.92;1694475;83;21558;-75
2021/08/28 05:01:05;;;;;;;78.17;4.90;;;;;;;10.72;85.89;99429.84;1692299;82;21029;-75
2021/08/28 05:03:32;;;;;;;85.77;5.27;;;;;;;10.79;85.97;99431.69;1690142;82;20963;-75
2021/08/28 05:05:59;;;;;;;52.20;5.47;;;;;;;10.86;85.98;99419.50;1687114;82;21816;-75
2021/08/28 05:08:25;;;;;;;64.07;5.23;;;;;;;10.91;85.89;99420.11;1693426;83;21053;-75
2021/08/28 05:10:52;;;;;;;40.03;4.87;;;;;;;11.00;86.06;99419.23;1678271;84;22190;-75
2021/08/28 05:13:18;;;;;;;23.60;4.87;;;;;;;11.07;85.99;99427.14;1655904;85;21004;-74
2021/08/28 05:15:45;;;;;;;27.62;5.28;;;;;;;11.16;85.98;99426.63;1647570;84;21000;-75
2021/08/28 05:18:12;;;;;;;11.63;4.70;;;;;;;11.23;85.99;99429.31;1651499;84;21620;-75
2021/08/28 05:20:39;;;;;;;48.58;6.00;;;;;;;11.41;86.22;99424.36;1651878;84;21190;-74
2021/08/28 05:23:06;;;;;;;59.63;6.73;;;;;;;11.59;86.37;99417.72;1667934;84;21576;-75
2021/08/28 05:25:32;;;;;;;34.63;6.20;;;;;;;11.76;86.13;99425.48;1668824;84;20991;-75
2021/08/28 05:27:59;;;;;;;63.87;6.42;;;;;;;11.94;86.18;99429.30;1670392;83;21066;-74
2021/08/28 05:30:26;;;;;;;112.15;7.90;;;;;;;12.06;85.93;99431.20;1687025;83;21564;-75
2021/08/28 05:32:52;;;;;;;58.60;7.57;;;;;;;12.14;85.98;99428.14;1674693;84;21082;-75
2021/08/28 05:35:19;;;;;;;58.52;7.30;;;;;;;12.28;86.12;99434.25;1669107;84;21288;-74
2021/08/28 05:37:46;;;;;;;84.37;8.10;;;;;;;12.38;85.94;99426.71;1673890;84;20999;-75
2021/08/28 05:40:13;;;;;;;157.33;9.97;;;;;;;12.52;86.00;99427.20;1672395;84;21258;-75
2021/08/28 05:42:41;;;;;;;134.80;10.63;;;;;;;12.67;85.90;99417.09;1666931;84;21121;-75
2021/08/28 05:45:10;;;;;;;113.80;11.85;;;;;;;12.76;85.62;99421.77;1676588;84;21119;-75
2021/08/28 05:47:36;;;;;;;160.00;10.15;;;;;;;12.91;85.87;99424.38;1689880;83;20954;-75
2021/08/28 05:50:05;;;;;;;178.65;9.20;;;;;;;13.21;86.08;99435.58;1631042;84;21536;-74
2021/08/28 05:52:32;;;;;;;170.38;10.78;;;;;;;13.30;85.46;99435.97;1648833;85;21916;-75
2021/08/28 05:54:59;;;;;;;136.80;8.70;;;;;;;13.39;85.56;99427.55;1648353;84;21026;-75
2021/08/28 05:57:26;;;;;;;98.47;9.23;;;;;;;13.48;85.42;99424.33;1684591;82;21577;-75
2021/08/28 05:59:52;;;;;;;266.60;10.00;;;;;;;13.49;85.35;99420.75;1667121;84;21145;-76
2021/08/28 06:02:19;;;;;;;117.87;10.28;;;;;;;13.52;85.46;99427.11;1663274;84;21663;-75
2021/08/28 06:04:45;;;;;;;131.17;11.87;;;;;;;13.54;85.53;99423.09;1719938;81;20992;-76
2021/08/28 06:07:12;;;;;;;246.37;10.83;;;;;;;13.50;85.38;99421.15;1693171;83;22174;-75
2021/08/28 06:09:39;;;;;;;259.57;9.75;;;;;;;13.54;85.86;99425.23;1719028;82;21026;-75
2021/08/28 06:12:06;;;;;;;171.28;7.60;;;;;;;13.64;85.67;99427.66;1718773;82;21296;-74
2021/08/28 06:14:33;;;;;;;385.85;10.48;;;;;;;13.57;85.39;99423.73;1715841;82;21032;-74
2021/08/28 06:17:00;;;;;;;256.63;8.00;;;;;;;13.51;85.14;99424.13;1719465;82;21493;-74
2021/08/28 06:19:26;;;;;;;255.87;8.30;;;;;;;13.41;85.07;99428.27;1719079;81;21237;-75
2021/08/28 06:21:53;;;;;;;196.12;7.58;;;;;;;13.37;85.22;99422.39;1717690;82;21133;-75
2021/08/28 06:24:20;;;;;;;292.57;8.80;;;;;;;13.49;85.86;99429.94;1716898;81;21565;-74
2021/08/28 06:26:47;;;;;;;178.97;7.10;;;;;;;13.63;85.84;99431.20;1720097;82;21498;-75
2021/08/28 06:29:14;;;;;;;154.53;6.80;;;;;;;13.68;85.57;99422.20;1719052;82;20953;-73
2021/08/28 06:31:41;;;;;;;;;;;;;;;13.75;85.61;99422.16;1698902;82;21545;-73
2021/08/28 06:34:07;;;;;;;101.40;6.20;;;;;;;13.84;85.52;99415.02;1718459;82;21251;-74
2021/08/28 06:36:34;;;;;;;197.57;7.75;;;;;;;13.91;85.35;99418.91;1719129;82;20908;-74
2021/08/28 06:39:01;;;;;;;166.05;21.82;;;;;;;13.97;85.57;99418.50;1714387;82;20944;-74
2021/08/28 06:41:29;;;;;;;204.25;9.83;;;;;;;14.19;86.04;99422.33;1714493;82;20999;-76
2021/08/28 06:43:56;;;;;;;154.30;12.25;;;;;;;14.44;86.01;99410.53;1694470;82;21082;-74
2021/08/28 06:46:23;;;;;;;209.35;8.63;;;;;;;14.72;86.35;99413.45;1713636;82;21152;-76
2021/08/28 06:48:55;;;;;;;277.15;21.52;;;;;;;14.90;85.67;99400.84;1714841;82;21514;-72
2021/08/28 06:51:22;;;;;;;215.40;8.83;;;;;;;15.04;85.90;99405.13;1698419;82;20944;-78
2021/08/28 06:53:49;;;;;;;209.12;8.43;;;;;;;15.21;86.04;99411.81;1715678;82;20928;-76
2021/08/28 06:56:19;;;;;;;149.30;7.33;;;;;;;15.31;85.55;99410.19;1705515;82;21005;-76
2021/08/28 06:58:46;;;;;;;130.30;9.50;;;;;;;15.44;85.64;99415.41;1690132;82;21064;-79
2021/08/28 07:01:13;;;;;;;211.05;20.12;;;;;;;15.62;85.45;99409.28;1692082;82;21574;-80
2021/08/28 07:03:39;;;;;;;237.45;24.90;;;;;;;15.80;85.78;99406.66;1692188;82;20989;-80
2021/08/28 07:06:06;;;;;;;185.55;9.98;;;;;;;15.98;85.44;99404.44;1690342;82;21065;-80
2021/08/28 07:08:33;;;;;;;56.42;6.30;;;;;;;15.90;84.49;99404.17;1691980;82;21160;-77
2021/08/28 07:11:00;;;;;;;210.63;9.50;;;;;;;16.07;85.35;99410.80;1690026;82;21915;-78
2021/08/28 07:13:27;;;;;;;284.83;10.03;;;;;;;16.39;85.38;99404.92;1689238;82;21621;-78
2021/08/28 07:15:58;;;;;;;206.23;8.63;;;;;;;16.67;84.44;99409.73;1686629;82;21072;-77
2021/08/28 07:18:24;;;;;;;143.93;7.90;;;;;;;16.70;84.10;99409.50;1718989;80;21624;-78
2021/08/28 07:20:52;;;;;;;190.25;7.90;;;;;;;16.77;84.45;99414.67;1688050;82;21153;-77
2021/08/28 07:23:19;;;;;;;89.07;5.97;;;;;;;16.71;83.84;99405.89;1688467;82;21147;-79
2021/08/28 07:25:46;;;;;;;49.38;5.80;;;;;;;16.62;84.32;99413.69;1694145;83;22166;-79
2021/08/28 07:28:13;;;;;;;115.35;7.15;;;;;;;16.86;85.16;99413.59;1685209;83;20950;-79
2021/08/28 07:30:40;;;;;;;112.95;6.83;;;;;;;17.00;84.49;99416.02;1677245;84;21546;-80
2021/08/28 07:33:07;;;;;;;41.88;5.67;;;;;;;17.04;84.35;99410.84;1645868;85;21028;-81
2021/08/28 07:35:34;;;;;;;9.83;4.72;;;;;;;17.50;85.13;99411.11;1704814;82;21151;-79
2021/08/28 07:38:02;;;;;;;40.20;5.62;;;;;;;18.00;84.78;99407.97;1690973;83;22174;-74
2021/08/28 07:40:29;;;;;;;52.90;6.62;;;;;;;18.38;84.12;99407.41;1682359;82;21075;-81
2021/08/28 07:43:00;;;;;;;10.63;5.78;;;;;;;18.33;83.36;99414.87;1692002;82;21077;-79
2021/08/28 07:45:27;;;;;;;27.50;6.05;;;;;;;18.32;83.49;99415.86;1683398;83;20986;-77
2021/08/28 07:47:55;;;;;;;7.17;5.65;;;;;;;18.31;83.35;99407.55;1691680;83;21247;-80
2021/08/28 07:50:22;;;;;;;19.57;6.65;;;;;;;18.24;82.99;99407.73;1689347;83;21008;-80
2021/08/28 07:52:49;;;;;;;17.87;6.95;;;;;;;17.99;82.73;99412.42;1671885;84;21047;-79
2021/08/28 07:55:18;;;;;;;10.45;7.30;;;;;;;17.81;82.67;99412.61;1677718;84;21028;-77
2021/08/28 07:58:06;;;;;;;15.08;8.70;;;;;;;17.67;82.99;99410.60;1656096;84;21046;-79
2021/08/28 08:00:33;;;;;;;13.05;10.05;;;;;;;17.56;83.20;99412.41;1683950;83;21173;-80
2021/08/28 08:03:00;;;;;;;13.20;9.25;;;;;;;17.37;82.50;99418.36;1701133;83;20990;-79
2021/08/28 08:05:27;;;;;;;;;;;;;;;17.00;81.87;99418.66;1717050;82;20974;-79
2021/08/28 08:07:55;;;;;;;;;;;;;;;16.65;82.34;99419.55;1702321;81;20176;-79
2021/08/28 08:10:22;;;;;;;8.58;7.72;;;;;;;16.50;82.81;99418.11;1694304;82;20147;-79
2021/08/28 08:12:50;;;;;;;8.60;7.20;;;;;;;16.45;83.37;99422.89;1645540;84;21092;-79
2021/08/28 08:15:17;;;;;;;10.00;7.30;;;;;;;16.43;83.13;99416.89;1669436;83;20975;-79
2021/08/28 08:17:43;;;;;;;8.63;7.72;;;;;;;16.45;83.43;99413.19;1659858;84;22258;-77
2021/08/28 08:20:11;;;;;;;8.65;7.42;;;;;;;16.63;83.57;99414.87;1649169;85;21013;-79
2021/08/28 08:22:38;;;;;;;8.38;7.20;;;;;;;16.85;83.68;99415.88;1668234;84;21083;-78
2021/08/28 08:25:07;;;;;;;7.83;7.12;;;;;;;16.84;82.47;99421.64;1677648;84;21053;-77
2021/08/28 08:27:34;;;;;;;7.50;6.78;;;;;;;16.67;82.36;99422.92;1676814;82;21174;-78
2021/08/28 08:30:01;;;;;;;8.90;7.47;;;;;;;16.42;81.90;99423.13;1666242;83;21741;-79
2021/08/28 08:32:28;;;;;;;10.18;8.23;;;;;;;16.22;82.22;99424.64;1669386;84;21013;-79
2021/08/28 08:34:54;;;;;;;7.85;7.05;;;;;;;16.11;82.51;99420.17;1640931;85;21055;-77
2021/08/28 08:37:21;;;;;;;8.33;6.62;;;;;;;16.21;83.03;99428.21;1699466;82;21103;-80
2021/08/28 08:39:48;;;;;;;7.60;6.90;;;;;;;16.43;83.59;99420.84;1680167;83;22164;-80
2021/08/28 08:42:18;;;;;;;8.40;7.53;;;;;;;16.80;83.74;99419.35;1696474;82;20940;-80
2021/08/28 08:44:47;;;;;;;8.45;7.60;;;;;;;17.10;83.58;99422.22;1699800;82;21144;-80
2021/08/28 08:47:14;;;;;;;8.48;6.97;;;;;;;17.36;82.86;99417.50;1677711;84;21067;-80
2021/08/28 08:49:42;;;;;;;7.92;7.22;;;;;;;17.32;81.64;99424.48;1677572;84;21985;-79
2021/08/28 08:52:11;;;;;;;6.75;6.10;;;;;;;17.27;81.92;99430.60;1677287;84;22611;-81
2021/08/28 08:54:38;;;;;;;7.00;6.17;;;;;;;17.29;81.99;99428.69;1682646;83;21729;-80
2021/08/28 08:57:06;;;;;;;6.87;6.17;;;;;;;17.28;82.07;99424.35;1695665;82;21000;-80
2021/08/28 08:59:33;;;;;;;6.28;5.67;;;;;;;17.29;81.45;99426.05;1705843;82;20972;-79
2021/08/28 09:02:04;;;;;;;;;;;;;;;17.37;82.15;99426.28;1677748;83;21872;-81
2021/08/28 09:04:29;;;;;;;6.50;5.90;;;;;;;17.55;81.70;99431.38;1682763;82;21256;-80
2021/08/28 09:06:56;;;;;;;8.33;6.80;;;;;;;17.54;82.10;99426.24;1689282;83;21047;-79
2021/08/28 09:09:23;;;;;;;6.62;6.03;;;;;;;17.61;81.62;99428.23;1681512;83;21093;-76
2021/08/28 09:12:02;;;;;;;6.80;6.05;;;;;;;17.79;82.14;99427.76;1684932;83;21033;-77
2021/08/28 09:14:29;;;;;;;6.42;5.83;;;;;;;18.23;82.20;99420.12;1679961;83;25302;-75
2021/08/28 09:16:56;;;;;;;;;;;;;;;18.47;81.87;99415.87;1692053;82;20996;-75
2021/08/28 09:19:37;;;;;;;;;;;;;;;18.64;81.70;99422.84;1689027;83;20174;-75
2021/08/28 09:22:26;;;;;;;6.47;5.60;;;;;;;18.69;80.29;99418.02;1660379;85;20138;-76
2021/08/28 09:25:07;;;;;;;5.62;5.08;;;;;;;18.31;79.69;99419.45;1680486;83;21003;-76
2021/08/28 09:27:47;;;;;;;8.75;6.15;;;;;;;18.38;81.04;99412.69;1685018;82;21963;-76
2021/08/28 09:30:24;;;;;;;6.70;5.50;;;;;;;18.58;81.37;99415.45;1668053;83;21094;-77
2021/08/28 09:32:58;;;;;;;7.90;6.22;;;;;;;18.75;80.28;99418.83;1675188;83;21077;-76
2021/08/28 09:35:29;;;;;;;6.05;5.45;;;;;;;18.85;80.46;99421.05;1670628;83;21011;-75
2021/08/28 09:38:06;;;;;;;6.97;5.70;;;;;;;18.88;79.71;99418.13;1679623;83;21025;-78
2021/08/28 09:40:44;;;;;;;6.00;5.40;;;;;;;18.78;79.68;99405.34;1674796;83;21090;-78
2021/08/28 09:43:19;;;;;;;5.60;4.55;;;;;;;18.93;80.67;99402.70;1649930;85;21041;-76
2021/08/28 09:45:49;;;;;;;6.30;5.70;;;;;;;19.08;79.99;99405.81;1662268;85;21104;-75
2021/08/28 09:48:39;;;;;;;6.47;5.10;;;;;;;19.22;80.58;99407.25;1688801;83;21548;-78
2021/08/28 09:51:08;;;;;;;7.35;4.67;;;;;;;19.29;80.20;99403.06;1673019;83;21640;-78
2021/08/28 09:53:37;;;;;;;5.75;4.80;;;;;;;19.18;79.56;99400.53;1720584;81;22221;-78
2021/08/28 09:56:07;;;;;;;5.40;4.90;;;;;;;19.05;79.61;99397.31;1716108;81;21027;-77
2021/08/28 09:58:33;;;;;;;5.85;4.72;;;;;;;18.92;78.56;99397.05;1719209;81;20998;-77
2021/08/28 10:01:03;;;;;;;6.00;3.95;;;;;;;18.49;78.31;99398.08;1711818;81;21692;-76
2021/08/28 10:03:32;;;;;;;6.70;5.95;;;;;;;18.34;78.83;99400.69;1707041;81;20963;-76
2021/08/28 10:06:00;;;;;;;6.60;5.97;;;;;;;18.01;78.11;99399.93;1709358;81;21333;-80
2021/08/28 10:08:31;;;;;;;8.38;6.00;;;;;;;17.78;78.68;99393.02;1709632;81;21584;-80
2021/08/28 10:11:00;;;;;;;8.78;6.25;;;;;;;17.63;78.81;99399.92;1710322;81;21081;-81
2021/08/28 10:13:28;;;;;;;6.15;5.55;;;;;;;17.57;79.42;99391.67;1670910;83;21080;-81
2021/08/28 10:15:56;;;;;;;7.08;6.35;;;;;;;17.69;79.07;99388.02;1670909;83;21053;-81
2021/08/28 10:18:24;;;;;;;6.95;5.83;;;;;;;17.70;78.98;99387.53;1683950;83;21927;-80
2021/08/28 10:20:55;;;;;;;5.62;5.10;;;;;;;17.69;78.62;99386.70;1653646;85;21057;-79
2021/08/28 10:23:26;;;;;;;6.12;5.20;;;;;;;17.58;77.83;99397.30;1679119;83;22162;-80
2021/08/28 10:25:54;;;;;;;6.55;5.12;;;;;;;17.44;78.08;99395.78;1712442;81;20997;-83
2021/08/28 10:28:23;;;;;;;5.62;5.03;;;;;;;17.46;78.58;99395.18;1712551;81;21684;-82
2021/08/28 10:30:50;;;;;;;6.42;4.80;;;;;;;17.73;78.75;99388.14;1715406;82;21073;-82
2021/08/28 10:33:17;;;;;;;5.78;4.30;;;;;;;17.88;78.78;99394.81;1708916;81;20983;-81
2021/08/28 10:35:44;;;;;;;4.50;4.05;;;;;;;18.09;78.24;99390.88;1711156;81;21536;-75
2021/08/28 10:38:12;;;;;;;5.20;4.58;;;;;;;18.02;77.43;99388.39;1708779;81;21033;-84
2021/08/28 10:41:01;;;;;;;6.83;4.10;;;;;;;17.95;77.30;99389.02;1677846;83;21048;-78
2021/08/28 10:43:29;;;;;;;6.95;4.50;;;;;;;17.97;78.08;99390.56;1749482;80;21834;-79
2021/08/28 10:45:56;;;;;;;4.30;3.90;;;;;;;18.22;78.68;99381.91;1733016;80;20972;-79
2021/08/28 10:48:25;;;;;;;7.28;5.28;;;;;;;18.45;78.62;99379.47;1714601;82;21133;-80
2021/08/28 10:50:52;;;;;;;5.60;4.08;;;;;;;18.76;78.77;99376.86;1685009;83;20980;-81
2021/08/28 10:53:19;;;;;;;4.50;3.80;;;;;;;19.02;78.56;99375.92;1717568;82;21836;-80
2021/08/28 10:55:49;;;;;;;4.40;3.95;;;;;;;19.19;78.48;99361.20;1712345;82;21143;-82
2021/08/28 10:58:25;;;;;;;4.12;3.72;;;;;;;19.53;78.32;99383.34;1717381;82;20961;-79
2021/08/28 11:00:55;;;;;;;6.00;4.90;;;;;;;19.77;78.12;99386.92;1718336;82;21070;-79
2021/08/28 11:03:38;;;;;;;4.72;4.03;;;;;;;19.90;77.87;99389.64;1711584;82;21187;-79
2021/08/28 11:06:20;;;;;;;20.80;10.80;;;;;;;20.03;77.28;99384.56;1688363;83;21598;-72
2021/08/28 11:08:57;;;;;;;5.85;4.90;;;;;;;19.98;77.27;99386.30;1712427;81;21295;-78
2021/08/28 11:11:36;;;;;;;4.40;4.00;;;;;;;20.13;77.21;99389.34;1700536;82;21012;-73
2021/08/28 11:14:26;;;;;;;4.67;4.17;;;;;;;20.02;74.68;99389.49;1717671;81;20992;-76
2021/08/28 11:16:57;;;;;;;4.17;3.70;;;;;;;19.48;75.14;99398.80;1754634;80;21010;-73
2021/08/28 11:19:29;;;;;;;5.17;3.77;;;;;;;19.21;75.56;99391.00;1760289;79;20987;-73
2021/08/28 11:22:01;;;;;;;4.40;3.50;;;;;;;19.22;75.67;99395.34;1753819;80;21031;-70
2021/08/28 11:24:31;;;;;;;4.75;3.40;;;;;;;19.04;75.44;99395.62;1783778;78;20964;-68
2021/08/28 11:27:03;;;;;;;5.97;3.50;;;;;;;19.16;76.11;99399.85;1786972;79;21087;-73
2021/08/28 11:29:50;;;;;;;4.47;3.58;;;;;;;19.42;76.12;99393.06;1767050;79;21009;-73
2021/08/28 11:32:21;;;;;;;;;;;;;;;19.51;75.36;99398.52;1787369;79;20976;-73
2021/08/28 11:34:57;;;;;;;5.42;4.28;;;;;;;19.69;75.66;99406.18;1784601;79;21067;-72
2021/08/28 11:37:31;;;;;;;7.10;4.50;;;;;;;19.94;75.87;99410.55;1786643;79;20993;-75
2021/08/28 11:40:07;;;;;;;5.97;4.20;;;;;;;20.00;75.37;99408.69;1786350;78;21201;-75